Terminal Aerodrome Forecast
Issued by NWS Wilmington, OH

Current Version | Previous Version | Text Only | Print | Product List | Glossary Off
Versions: 1 2 3 4 5 6 7 8 9 10 11 12 13 14 15 16 17 18 19 20 21 22 23 24 25

336
FTUS41 KILN 171726
TAFDAY
TAF
KDAY 171726Z 1718/1818 06011KT P6SM VCSH BKN050
     FM180900 07010KT P6SM OVC025
     FM181100 07009KT P6SM OVC015
     FM181500 08010KT P6SM VCSH OVC020=

USA.gov is the U.S. government's official web portal to all federal, state and local government web resources and services.